Carlsbad (CRQ/KCRQ)

Map

Destinations

Information

Location
Carlsbad, CA
Local Time
18:46 / 6:46 pm
GMT Time
01:46 / 1:46 am
Gates
Unassigned
No FAA reported delays
METAR KCRQ 270053Z 24005KT 10SM CLR 25/16 A2988 RMK AO2 SLP117 T02500161
TAF KCRQ 262336Z 2700/2724 VRB04KT P6SM SKC FM270800 VRB04KT P6SM VCFG SCT001 FM271500 VRB04KT P6SM FEW003 FM272000 26008KT P6SM SKC